createdAt,value
2019-05-05T10:14:39.516Z,10.60
2019-05-05T10:17:10.283Z,10.10
2019-05-05T10:19:41.054Z,10.00
2019-05-05T10:22:11.821Z,9.87
2019-05-05T10:24:44.500Z,10.00
2019-05-05T10:27:15.283Z,9.98
2019-05-05T10:29:46.073Z,11.40
2019-05-05T10:32:16.864Z,11.40
2019-05-05T10:34:49.799Z,11.13
2019-05-05T10:37:20.575Z,11.00
2019-05-05T10:39:54.368Z,10.13
2019-05-05T10:42:27.123Z,10.58
2019-05-05T10:44:57.906Z,10.35
2019-05-05T10:47:28.669Z,11.00
2019-05-05T10:49:59.450Z,10.87
2019-05-05T10:52:30.218Z,11.13
2019-05-05T10:55:01.005Z,10.50
2019-05-05T10:57:31.770Z,10.53
2019-05-05T11:00:12.242Z,10.90
2019-05-05T11:02:37.939Z,10.98
2019-05-05T11:05:09.614Z,9.70
2019-05-05T11:07:40.502Z,9.70
2019-05-05T11:10:11.284Z,9.60
2019-05-05T11:12:44.238Z,10.33
2019-05-05T11:15:14.860Z,9.98
2019-05-05T11:17:45.629Z,10.10
2019-05-05T11:20:16.501Z,9.27
2019-05-05T11:22:47.261Z,10.27
2019-05-05T11:25:18.040Z,10.20
2019-05-05T11:27:49.302Z,10.43
2019-05-05T11:30:33.983Z,10.80
2019-05-05T11:33:23.963Z,10.30
2019-05-05T11:36:05.256Z,10.70
2019-05-05T11:38:36.039Z,10.13
2019-05-05T11:41:06.813Z,10.13
2019-05-05T11:43:37.574Z,10.13
2019-05-05T11:46:08.347Z,9.70
2019-05-05T11:48:39.117Z,9.60
2019-05-05T11:51:09.909Z,10.00
2019-05-05T11:53:40.659Z,9.60
2019-05-05T11:56:11.534Z,11.07
2019-05-05T11:58:44.244Z,9.63
2019-05-05T12:01:14.982Z,9.00
2019-05-05T12:03:45.743Z,9.57
2019-05-05T12:06:16.514Z,9.77
2019-05-05T12:08:47.292Z,9.40
2019-05-05T12:11:18.082Z,9.70
2019-05-05T12:13:48.850Z,10.10
2019-05-05T12:16:29.666Z,9.20
2019-05-05T12:19:02.359Z,9.30
2019-05-05T12:21:33.723Z,9.68
2019-05-05T12:24:06.543Z,9.90
2019-05-05T12:26:43.714Z,10.70
2019-05-05T12:29:14.539Z,10.00
2019-05-05T12:31:47.017Z,10.43
2019-05-05T12:34:17.783Z,10.87
2019-05-05T12:36:48.568Z,10.80
2019-05-05T12:39:19.345Z,10.63
2019-05-05T12:41:50.114Z,10.90
2019-05-05T12:44:23.659Z,10.90
2019-05-05T12:47:03.833Z,11.00
2019-05-05T12:49:34.692Z,10.87
2019-05-05T12:52:05.475Z,11.30
2019-05-05T12:54:36.241Z,11.27
2019-05-05T12:57:07.019Z,10.47
2019-05-05T12:59:37.779Z,10.87
2019-05-05T13:02:08.662Z,10.60
2019-05-05T13:04:39.795Z,10.40
2019-05-05T13:07:10.605Z,10.27
2019-05-05T13:09:41.378Z,10.67
2019-05-05T13:12:14.849Z,10.00
2019-05-05T13:14:45.197Z,9.30
2019-05-05T13:17:16.018Z,9.87
2019-05-05T13:19:49.029Z,8.23
2019-05-05T13:22:36.867Z,9.03
2019-05-05T13:25:24.948Z,8.93
2019-05-05T13:27:57.459Z,9.03
2019-05-05T13:30:28.406Z,9.70
2019-05-05T13:32:59.180Z,9.20
2019-05-05T13:35:29.986Z,8.90
2019-05-05T13:38:00.777Z,8.27
2019-05-05T13:40:31.681Z,9.07
2019-05-05T13:43:04.257Z,8.77
2019-05-05T13:45:54.037Z,9.10
2019-05-05T13:48:24.872Z,9.10
2019-05-05T13:50:57.553Z,8.70
2019-05-05T13:53:28.322Z,8.80
2019-05-05T13:56:09.660Z,9.60
2019-05-05T13:58:31.882Z,11.10
2019-05-05T14:01:03.764Z,9.90
2019-05-05T14:03:34.701Z,10.70
2019-05-05T14:06:05.475Z,10.50
2019-05-05T14:08:36.550Z,10.47
2019-05-05T14:11:07.474Z,10.23
2019-05-05T14:13:38.268Z,10.50
2019-05-05T14:16:09.065Z,10.53
2019-05-05T14:18:40.157Z,9.30
2019-05-05T14:21:10.928Z,10.30
2019-05-05T14:23:49.450Z,9.20
2019-05-05T14:26:25.696Z,9.40
2019-05-05T14:28:53.643Z,10.20
2019-05-05T14:31:33.811Z,9.30
2019-05-05T14:34:06.660Z,9.37
2019-05-05T14:36:39.531Z,9.50
2019-05-05T14:39:12.221Z,8.30
2019-05-05T14:41:44.561Z,8.07
2019-05-05T14:44:15.383Z,8.40
2019-05-05T14:46:46.138Z,7.90
2019-05-05T14:49:16.919Z,7.47
2019-05-05T14:51:47.737Z,7.70
2019-05-05T14:54:18.562Z,7.77
2019-05-05T14:56:49.346Z,7.80
2019-05-05T14:59:20.123Z,7.70
2019-05-05T15:01:50.890Z,8.00
2019-05-05T15:04:23.922Z,8.27
2019-05-05T15:07:03.701Z,7.70
2019-05-05T15:09:48.656Z,7.70
2019-05-05T15:12:34.165Z,7.70
2019-05-05T15:15:07.244Z,7.60
2019-05-05T15:17:38.437Z,8.00
2019-05-05T15:20:09.325Z,8.20
2019-05-05T15:22:40.090Z,8.23
2019-05-05T15:25:10.962Z,16.60
2019-05-05T15:27:41.753Z,12.70
2019-05-05T15:30:13.479Z,10.90
2019-05-05T15:32:44.250Z,9.37
2019-05-05T15:35:15.033Z,13.07
2019-05-05T15:37:45.811Z,11.00
2019-05-05T15:40:16.682Z,12.43
2019-05-05T15:42:47.477Z,13.60
2019-05-05T15:45:18.351Z,16.80
2019-05-05T15:47:49.124Z,9.70
2019-05-05T15:50:20.015Z,9.00
2019-05-05T15:52:50.761Z,9.97
2019-05-05T15:55:21.583Z,22.07
2019-05-05T15:57:52.360Z,12.40
2019-05-05T16:00:25.254Z,9.83
2019-05-05T16:02:55.946Z,12.53
2019-05-05T16:05:26.822Z,10.63
2019-05-05T16:07:57.642Z,8.70
2019-05-05T16:10:28.403Z,8.97
2019-05-05T16:12:59.209Z,8.57
2019-05-05T16:15:31.957Z,8.30
2019-05-05T16:18:10.382Z,9.30
2019-05-05T16:20:45.983Z,8.50
2019-05-05T16:23:25.002Z,8.70
2019-05-05T16:25:55.811Z,8.60
2019-05-05T16:28:26.674Z,7.63
2019-05-05T16:30:57.472Z,8.20
2019-05-05T16:33:30.346Z,7.73
2019-05-05T16:36:01.849Z,7.90
2019-05-05T16:38:34.361Z,7.60
2019-05-05T16:41:05.460Z,7.67
2019-05-05T16:43:36.285Z,7.70
2019-05-05T16:46:07.175Z,8.37
2019-05-05T16:48:37.955Z,7.73
2019-05-05T16:51:10.698Z,8.20
2019-05-05T16:53:41.606Z,8.17
2019-05-05T16:56:14.391Z,7.13
2019-05-05T16:58:45.309Z,8.00
2019-05-05T17:01:16.689Z,7.90
2019-05-05T17:03:47.492Z,7.63
2019-05-05T17:06:18.364Z,8.20
2019-05-05T17:08:49.435Z,7.70
2019-05-05T17:11:20.201Z,7.60
2019-05-05T17:14:09.965Z,7.83
2019-05-05T17:16:44.189Z,7.70
2019-05-05T17:19:26.162Z,7.57
2019-05-05T17:22:07.714Z,7.57
2019-05-05T17:24:38.976Z,8.23
2019-05-05T17:27:09.895Z,8.13
2019-05-05T17:29:40.723Z,7.50
2019-05-05T17:32:11.513Z,7.77
2019-05-05T17:34:42.318Z,7.50
2019-05-05T17:37:13.513Z,7.50
2019-05-05T17:39:49.101Z,7.60
2019-05-05T17:42:27.897Z,7.05
2019-05-05T17:45:00.635Z,7.05
2019-05-05T17:47:48.253Z,7.08
2019-05-05T17:50:21.005Z,7.00
2019-05-05T17:52:56.321Z,6.80
2019-05-05T17:55:33.855Z,7.80
2019-05-05T17:58:05.409Z,8.10
2019-05-05T18:00:38.314Z,7.55
2019-05-05T18:03:09.124Z,7.53
2019-05-05T18:05:58.798Z,7.70
2019-05-05T18:08:37.577Z,8.20
2019-05-05T18:11:14.512Z,7.35
2019-05-05T18:13:48.031Z,7.22
2019-05-05T18:16:20.644Z,7.60
2019-05-05T18:18:51.435Z,7.90
2019-05-05T18:21:23.638Z,7.70
2019-05-05T18:23:54.735Z,7.85
2019-05-05T18:26:25.698Z,7.57
2019-05-05T18:28:56.455Z,7.80
2019-05-05T18:31:27.235Z,7.37
2019-05-05T18:34:00.529Z,7.80
2019-05-05T18:36:31.306Z,7.55
2019-05-05T18:39:06.798Z,7.63
2019-05-05T18:41:45.371Z,7.90
2019-05-05T18:44:24.219Z,8.00
2019-05-05T18:47:17.544Z,7.70
2019-05-05T18:49:46.264Z,7.55
2019-05-05T18:52:17.034Z,8.10
2019-05-05T18:54:47.828Z,8.57
2019-05-05T18:57:18.574Z,8.00
2019-05-05T18:59:49.351Z,7.90
2019-05-05T19:02:23.986Z,7.37
2019-05-05T19:04:56.872Z,7.40
2019-05-05T19:07:53.042Z,7.95
2019-05-05T19:10:14.987Z,7.78
2019-05-05T19:12:45.841Z,8.13
2019-05-05T19:15:16.839Z,8.00
2019-05-05T19:17:47.955Z,7.80
2019-05-05T19:20:20.694Z,7.90
2019-05-05T19:22:54.334Z,7.53
2019-05-05T19:25:26.406Z,7.70
2019-05-05T19:27:57.506Z,8.00
2019-05-05T19:30:28.464Z,8.17
2019-05-05T19:32:59.224Z,7.50
2019-05-05T19:35:41.953Z,7.50
2019-05-05T19:38:05.676Z,8.10
2019-05-05T19:40:39.350Z,7.63
2019-05-05T19:43:13.982Z,7.67
2019-05-05T19:45:45.292Z,7.20
2019-05-05T19:48:16.210Z,7.60
2019-05-05T19:50:48.961Z,8.07
2019-05-05T19:53:24.634Z,7.60
2019-05-05T19:55:56.211Z,7.15
2019-05-05T19:58:26.972Z,7.60
2019-05-05T20:01:00.062Z,7.00
2019-05-05T20:03:35.166Z,7.60
2019-05-05T20:06:07.503Z,7.58
2019-05-05T20:08:41.421Z,7.58
2019-05-05T20:11:11.001Z,7.15
2019-05-05T20:13:41.809Z,7.30
2019-05-05T20:16:17.505Z,7.33
2019-05-05T20:18:50.275Z,7.28
2019-05-05T20:21:21.007Z,7.47
2019-05-05T20:23:51.776Z,7.10
2019-05-05T20:26:25.026Z,8.00
2019-05-05T20:29:10.244Z,7.37
2019-05-05T20:31:34.573Z,7.80
2019-05-05T20:34:13.557Z,7.53
2019-05-05T20:37:04.414Z,8.13
2019-05-05T20:39:37.249Z,7.90
2019-05-05T20:42:08.166Z,8.73
2019-05-05T20:44:39.139Z,8.20
2019-05-05T20:47:09.916Z,7.80
2019-05-05T20:49:40.941Z,8.03
2019-05-05T20:52:14.008Z,8.03
2019-05-05T20:54:47.335Z,8.20
2019-05-05T20:57:18.109Z,7.90
2019-05-05T20:59:48.872Z,7.33
2019-05-05T21:02:19.650Z,7.70
2019-05-05T21:04:50.448Z,8.10
2019-05-05T21:07:25.851Z,7.30
2019-05-05T21:09:53.926Z,7.50
2019-05-05T21:12:38.498Z,7.60
2019-05-05T21:14:57.430Z,7.60
2019-05-05T21:17:28.236Z,7.90
2019-05-05T21:19:58.978Z,6.97
2019-05-05T21:22:37.364Z,7.20
2019-05-05T21:25:23.919Z,7.37
2019-05-05T21:27:54.969Z,7.35
2019-05-05T21:30:25.732Z,7.10
2019-05-05T21:32:56.512Z,7.17
2019-05-05T21:35:27.579Z,6.30
2019-05-05T21:37:58.380Z,6.95
2019-05-05T21:40:29.151Z,7.00
2019-05-05T21:43:00.291Z,7.13
2019-05-05T21:45:31.342Z,6.80
2019-05-05T21:48:04.266Z,6.87
2019-05-05T21:50:36.923Z,6.62
2019-05-05T21:53:14.078Z,6.95
2019-05-05T21:55:55.975Z,6.62
2019-05-05T21:58:28.691Z,6.83
2019-05-05T22:01:07.615Z,7.37
2019-05-05T22:03:39.015Z,6.80
2019-05-05T22:06:09.854Z,6.72
2019-05-05T22:08:40.653Z,6.83
2019-05-05T22:11:11.436Z,6.60
2019-05-05T22:13:44.226Z,7.03
2019-05-05T22:16:14.943Z,6.90
2019-05-05T22:18:46.695Z,7.60
2019-05-05T22:21:22.264Z,6.65
2019-05-05T22:24:13.722Z,5.92
2019-05-05T22:26:45.190Z,6.85
2019-05-05T22:29:17.027Z,6.63
2019-05-05T22:31:48.254Z,6.58
2019-05-05T22:34:19.023Z,6.40
2019-05-05T22:36:49.812Z,6.23
2019-05-05T22:39:20.657Z,6.17
2019-05-05T22:41:54.137Z,5.83
2019-05-05T22:44:24.496Z,6.50
2019-05-05T22:46:55.317Z,5.80
2019-05-05T22:49:26.082Z,6.20
2019-05-05T22:51:57.060Z,5.90
2019-05-05T22:54:27.846Z,6.57
2019-05-05T22:56:58.589Z,6.37
2019-05-05T22:59:29.362Z,6.30
2019-05-05T23:02:00.129Z,6.30
2019-05-05T23:04:34.765Z,6.90
2019-05-05T23:07:07.408Z,6.22
2019-05-05T23:09:38.189Z,5.75
2019-05-05T23:12:08.960Z,6.77
2019-05-05T23:14:39.736Z,6.57
2019-05-05T23:17:21.232Z,6.20
2019-05-05T23:19:59.811Z,6.30
2019-05-05T23:22:34.690Z,6.50
2019-05-05T23:25:24.142Z,6.30
2019-05-05T23:27:55.101Z,6.30
2019-05-05T23:30:38.724Z,6.53
2019-05-05T23:32:58.573Z,6.30
2019-05-05T23:35:29.361Z,6.53
2019-05-05T23:38:00.130Z,6.20
2019-05-05T23:40:30.906Z,6.23
2019-05-05T23:43:01.721Z,5.90
2019-05-05T23:45:34.090Z,6.10
2019-05-05T23:48:05.301Z,6.35
2019-05-05T23:50:36.092Z,5.78
2019-05-05T23:53:06.905Z,6.03
2019-05-05T23:55:37.671Z,6.10
2019-05-05T23:58:08.450Z,5.70
